Time;durP1;ratioP1;P1;durP2;ratioP2;P2;SDS_P1;SDS_P2;PMS_P1;PMS_P2;Temp;Humidity;BMP_temperature;BMP_pressure;BME280_temperature;BME280_humidity;BME280_pressure;Samples;Min_cycle;Max_cycle;Signal;HPM_P1;HPM_P2
2022/05/19 00:02:11;;;;;;;6.20;5.00;;;17.40;99.90;;;-141.84;64.78;18346.75;5088496;28;20248;-53
2022/05/19 00:04:55;;;;;;;6.55;5.22;;;17.30;99.90;;;-141.84;65.07;18314.25;5075419;28;20344;-54
2022/05/19 00:07:31;;;;;;;5.95;5.30;;;17.30;99.90;;;-141.84;65.40;18326.44;5086458;28;20225;-55
2022/05/19 00:09:59;;;;;;;5.90;4.72;;;17.20;99.90;;;-141.84;65.11;18348.78;5089450;28;20266;-54
2022/05/19 00:12:29;;;;;;;5.80;5.30;;;17.30;99.90;;;-141.84;65.24;18338.63;5090211;28;20221;-52
2022/05/19 00:15:13;;;;;;;5.43;4.93;;;17.20;99.90;;;-141.84;65.49;18324.41;5081092;28;20228;-53
2022/05/19 00:17:56;;;;;;;6.72;5.45;;;17.20;99.90;;;-141.84;64.95;18314.25;5086897;28;20227;-53
2022/05/19 00:20:31;;;;;;;5.75;5.25;;;17.20;99.90;;;-141.84;64.83;18293.94;5081417;28;20244;-52
2022/05/19 00:23:10;;;;;;;5.40;4.80;;;17.20;99.90;;;-141.84;65.24;18322.38;5086148;28;20276;-53
2022/05/19 00:25:38;;;;;;;5.65;5.15;;;17.20;99.90;;;-141.84;65.31;18371.13;5086621;28;20288;-53
2022/05/19 00:28:23;;;;;;;5.70;5.18;;;17.10;99.90;;;-141.84;65.25;18306.13;5082167;28;20239;-51
2022/05/19 00:31:10;;;;;;;5.70;4.85;;;17.10;99.90;;;-141.84;64.83;18322.38;5085710;28;20221;-53
2022/05/19 00:33:55;;;;;;;7.32;5.57;;;17.10;99.90;;;-141.84;64.74;18300.03;5078257;28;20234;-53
2022/05/19 00:36:23;;;;;;;5.80;5.20;;;17.10;99.90;;;-141.84;64.96;18302.06;5085538;28;20242;-54
2022/05/19 00:39:02;;;;;;;5.38;4.88;;;17.10;99.90;;;-141.84;65.14;18298.00;5080503;28;20296;-55
2022/05/19 00:42:43;;;;;;;5.60;5.03;;;17.00;99.90;;;-141.84;65.21;18326.44;5086099;28;20227;-52
2022/05/19 00:44:47;;;;;;;5.93;5.25;;;17.00;99.90;;;-141.84;65.49;18332.53;5073455;28;20235;-51
2022/05/19 00:47:35;;;;;;;5.78;5.25;;;17.10;99.90;;;-141.84;65.61;18312.22;5087288;28;20235;-53
2022/05/19 00:50:21;;;;;;;5.70;5.15;;;17.00;99.90;;;-141.84;65.39;18322.38;5084736;28;20208;-51
2022/05/19 00:53:00;;;;;;;5.65;5.15;;;17.00;99.90;;;-141.84;65.26;18304.09;5080045;28;20227;-54
2022/05/19 00:55:40;;;;;;;5.40;5.00;;;17.00;99.90;;;-141.84;65.00;18310.19;5087221;28;20231;-55
2022/05/19 00:58:25;;;;;;;5.75;4.78;;;17.00;99.90;;;-141.84;64.99;18302.06;5090851;28;20295;-55
2022/05/19 01:01:00;;;;;;;5.47;5.03;;;17.00;99.90;;;-141.84;64.70;18306.13;5085600;28;20284;-52
2022/05/19 01:03:43;;;;;;;5.20;4.70;;;17.00;99.90;;;-141.84;64.64;18330.50;5075922;28;20254;-53
2022/05/19 01:06:20;;;;;;;6.07;5.50;;;17.00;99.90;;;-141.84;64.00;18314.25;5085934;28;20217;-51
2022/05/19 01:08:58;;;;;;;6.60;5.47;;;17.10;99.90;;;-141.84;64.97;18308.16;5078866;28;20228;-56
2022/05/19 01:11:38;;;;;;;5.15;4.65;;;17.00;99.90;;;-141.84;65.26;18310.19;5085777;28;20224;-51
2022/05/19 01:14:19;;;;;;;6.30;5.45;;;17.00;99.90;;;-141.84;65.36;18318.31;5086317;28;20192;-54
2022/05/19 01:17:01;;;;;;;5.68;4.90;;;16.90;99.90;;;-141.84;65.42;18320.34;5073805;28;20224;-53
2022/05/19 01:19:39;;;;;;;6.47;5.10;;;16.90;99.90;;;-141.84;65.74;18322.38;5086418;28;20240;-52
2022/05/19 01:22:33;;;;;;;6.82;5.13;;;16.80;99.90;;;-141.84;65.44;18293.94;5080797;28;20262;-53
2022/05/19 01:25:30;;;;;;;5.28;4.88;;;16.80;99.90;;;-141.84;65.49;18328.47;5085564;28;20297;-53
2022/05/19 01:28:11;;;;;;;5.82;5.22;;;16.80;99.90;;;-141.84;66.02;18298.00;5077820;28;20247;-55
2022/05/19 01:30:52;;;;;;;5.35;4.85;;;16.80;99.90;;;-141.84;65.53;18322.38;5085380;28;20315;-51
2022/05/19 01:33:42;;;;;;;6.40;5.80;;;16.80;99.90;;;-141.84;66.38;18255.34;5077335;28;20315;-54
2022/05/19 01:36:20;;;;;;;5.60;5.10;;;16.70;99.90;;;-141.84;65.27;18302.06;5085737;28;20244;-55
2022/05/19 01:38:59;;;;;;;5.70;5.20;;;16.80;99.90;;;-141.84;65.69;18277.69;5076842;28;20331;-54
2022/05/19 01:42:00;;;;;;;6.72;5.32;;;16.70;99.90;;;-141.84;66.24;18277.69;5086436;28;20197;-55
2022/05/19 01:44:58;;;;;;;5.93;5.43;;;16.70;99.90;;;-141.84;66.50;18298.00;5078718;28;20248;-53
2022/05/19 01:47:45;;;;;;;6.10;5.55;;;16.60;99.90;;;-141.84;66.39;18279.72;5086459;28;20268;-51
2022/05/19 01:50:25;;;;;;;6.28;5.57;;;16.60;99.90;;;-141.84;66.30;18241.13;5086478;28;20232;-53
2022/05/19 01:53:04;;;;;;;6.22;5.63;;;16.60;99.90;;;-141.84;65.60;18279.72;5077680;28;20311;-57
2022/05/19 01:55:48;;;;;;;5.72;5.22;;;16.60;99.90;;;-141.84;66.42;18257.38;5086018;28;20742;-53
2022/05/19 01:58:46;;;;;;;5.72;5.22;;;16.60;99.90;;;-141.84;67.08;18226.88;5079222;28;20228;-54
2022/05/19 02:01:29;;;;;;;7.10;5.35;;;16.50;99.90;;;-141.84;67.42;18247.22;5085219;28;20224;-53
2022/05/19 02:04:10;;;;;;;5.90;5.38;;;16.50;99.90;;;-141.84;65.43;18277.69;5085049;28;20232;-55
2022/05/19 02:07:07;;;;;;;7.32;6.05;;;16.60;99.90;;;-141.84;66.14;18259.41;5084909;28;20295;-56
2022/05/19 02:09:58;;;;;;;6.47;5.60;;;16.50;99.90;;;-141.84;66.84;18243.16;5079390;28;20236;-53
2022/05/19 02:12:33;;;;;;;6.18;5.68;;;16.40;99.90;;;-141.84;66.64;18253.31;5085875;28;20335;-54
2022/05/19 02:15:25;;;;;;;5.72;5.22;;;16.40;99.90;;;-141.84;67.80;18255.34;5079947;28;20235;-52
2022/05/19 02:18:25;;;;;;;7.57;5.05;;;16.40;99.90;;;-141.84;68.05;18237.06;5092680;28;20279;-53
2022/05/19 02:21:11;;;;;;;6.22;5.72;;;16.30;99.90;;;-141.84;68.26;18190.31;5082898;28;20300;-54
2022/05/19 02:24:02;;;;;;;6.03;5.50;;;16.20;99.90;;;-141.84;68.24;18224.84;5095460;28;20224;-54
2022/05/19 02:26:41;;;;;;;5.32;4.82;;;16.20;99.90;;;-141.84;69.15;18165.94;5073667;28;20244;-54
2022/05/19 02:29:22;;;;;;;5.75;5.32;;;16.10;99.90;;;-141.84;69.44;18155.78;5100860;28;20986;-54
2022/05/19 02:31:54;;;;;;;6.03;5.30;;;16.10;99.90;;;-141.84;69.43;18196.41;5085643;28;20244;-54
2022/05/19 02:34:27;;;;;;;6.93;5.63;;;16.00;99.90;;;-141.84;70.16;18133.44;5093361;28;20228;-55
2022/05/19 02:37:06;;;;;;;6.10;5.60;;;16.00;99.90;;;-141.84;70.29;18165.94;5089505;28;20224;-52
2022/05/19 02:39:40;;;;;;;5.85;5.35;;;15.90;99.90;;;-141.84;70.56;18163.91;5089970;28;20232;-54
2022/05/19 02:42:18;;;;;;;9.10;5.80;;;15.90;99.90;;;-141.84;71.82;18121.25;5093088;28;20230;-53
2022/05/19 02:44:46;;;;;;;6.05;5.45;;;15.80;99.90;;;-141.84;72.06;18119.22;5082594;28;20291;-51
2022/05/19 02:47:15;;;;;;;6.60;5.85;;;15.80;99.90;;;-141.84;71.22;18096.88;5098339;28;20239;-56
2022/05/19 02:49:55;;;;;;;7.95;5.90;;;15.80;99.90;;;-141.84;71.49;18137.50;5089985;28;20284;-56
2022/05/19 02:52:36;;;;;;;6.65;5.90;;;15.70;99.90;;;-141.84;69.69;18161.88;5071762;28;20243;-53
2022/05/19 02:55:22;;;;;;;6.60;5.85;;;15.90;99.90;;;-141.84;70.45;18119.22;5088875;28;20232;-55
2022/05/19 02:58:00;;;;;;;6.78;5.80;;;16.00;99.90;;;-141.84;70.17;18147.66;5093114;28;20236;-53
2022/05/19 03:00:33;;;;;;;6.30;5.60;;;15.90;99.90;;;-141.84;70.78;18133.44;5089693;28;20289;-55
2022/05/19 03:03:31;;;;;;;5.90;5.38;;;16.00;99.90;;;-141.84;72.10;18107.03;5080731;28;20311;-54
2022/05/19 03:06:12;;;;;;;5.85;5.35;;;15.80;99.90;;;-141.84;72.85;18078.59;5087788;28;20242;-52
2022/05/19 03:08:50;;;;;;;6.95;5.90;;;15.70;99.90;;;-141.84;73.38;18090.78;5081977;28;20243;-56
2022/05/19 03:14:43;;;;;;;6.43;5.90;;;15.60;99.90;;;-141.84;73.96;18035.94;5080657;28;20275;-54
2022/05/19 03:17:12;;;;;;;6.93;6.22;;;15.50;99.90;;;-141.84;74.56;18011.56;5089177;28;20223;-55
2022/05/19 03:19:53;;;;;;;6.90;6.25;;;15.50;99.90;;;-141.84;74.40;18029.84;5081720;28;20881;-50
2022/05/19 03:22:38;;;;;;;6.82;6.18;;;15.50;99.90;;;-141.84;74.36;18046.09;5080348;28;20235;-53
2022/05/19 03:25:21;;;;;;;6.75;6.15;;;15.40;99.90;;;-141.84;74.17;18066.41;5089011;28;20244;-52
2022/05/19 03:27:56;;;;;;;6.00;5.50;;;15.40;99.90;;;-141.84;74.54;18031.88;5074674;28;20255;-53
2022/05/19 03:30:24;;;;;;;6.35;5.80;;;15.40;99.90;;;-141.84;73.06;18064.38;5087447;28;20271;-55
2022/05/19 03:33:07;;;;;;;7.85;5.97;;;15.50;99.90;;;-141.84;73.43;18029.84;5077749;28;20253;-51
2022/05/19 03:35:43;;;;;;;6.63;5.20;;;15.50;99.90;;;-141.84;73.85;18033.91;5088873;28;20232;-55
2022/05/19 03:41:11;;;;;;;6.03;5.40;;;15.50;99.90;;;-141.84;72.96;18035.94;5087146;28;20225;-54
2022/05/19 03:44:04;;;;;;;6.60;5.90;;;15.50;99.90;;;-141.84;71.73;18084.69;5088511;28;20208;-56
2022/05/19 03:46:39;;;;;;;5.60;5.10;;;15.50;99.90;;;-141.84;70.87;18084.69;5081638;28;20371;-54
2022/05/19 03:49:18;;;;;;;6.05;5.45;;;15.60;99.90;;;-141.84;70.06;18094.84;5087957;28;20629;-54
2022/05/19 03:52:13;;;;;;;5.97;5.47;;;15.70;99.90;;;-141.84;69.49;18121.25;5089935;28;20224;-54
2022/05/19 03:54:56;;;;;;;6.55;5.30;;;15.80;99.90;;;-141.84;68.83;18133.44;5089245;28;20254;-56
2022/05/19 04:00:21;;;;;;;5.68;5.13;;;16.00;99.90;;;-141.84;67.54;18161.88;5085434;28;20224;-53
2022/05/19 04:02:49;;;;;;;5.85;5.25;;;16.10;99.90;;;-141.84;66.91;18208.59;5080718;28;20291;-55
2022/05/19 04:05:36;;;;;;;5.90;5.30;;;16.10;99.90;;;-141.84;66.58;18202.50;5088633;28;20205;-54
2022/05/19 04:08:20;;;;;;;6.13;5.32;;;16.20;99.90;;;-141.84;66.07;18226.88;5089773;28;20205;-54
2022/05/19 04:11:05;;;;;;;5.63;5.13;;;16.30;99.90;;;-141.84;66.56;18200.47;5080330;28;20666;-54
2022/05/19 04:13:36;;;;;;;5.95;5.30;;;16.30;99.90;;;-141.84;66.47;18230.94;5087013;28;20251;-55
2022/05/19 04:16:24;;;;;;;5.22;4.72;;;16.40;99.90;;;-141.84;66.47;18178.13;5078992;28;20235;-55
2022/05/19 04:19:04;;;;;;;5.93;5.05;;;16.40;99.90;;;-141.84;66.42;18206.56;5087838;28;20292;-54
2022/05/19 04:21:35;;;;;;;4.90;4.50;;;16.50;99.90;;;-141.84;64.85;18243.16;5077383;28;20255;-55
2022/05/19 04:24:19;;;;;;;5.88;4.63;;;16.50;99.90;;;-141.84;64.53;18253.31;5087144;28;20771;-58
2022/05/19 04:26:49;;;;;;;5.32;4.68;;;16.60;99.90;;;-141.84;63.73;18306.13;5079720;28;20251;-52
2022/05/19 04:29:26;;;;;;;5.57;4.68;;;16.70;99.90;;;-141.84;63.16;18277.69;5100622;28;20225;-55
2022/05/19 04:32:06;;;;;;;5.60;4.95;;;16.80;99.90;;;-141.84;62.24;18336.59;5086245;28;20279;-54
2022/05/19 04:34:52;;;;;;;7.55;4.70;;;16.80;99.90;;;-141.84;62.67;18304.09;5055446;28;20228;-53
2022/05/19 04:37:29;;;;;;;4.72;4.32;;;17.00;99.90;;;-141.84;61.95;18373.16;5085958;28;20304;-54
2022/05/19 04:40:00;;;;;;;5.47;4.95;;;17.00;99.90;;;-141.84;61.23;18381.28;5088404;28;20656;-55
2022/05/19 04:42:31;;;;;;;5.38;4.82;;;17.10;99.90;;;-141.84;60.10;18395.50;5090057;28;20228;-52
2022/05/19 04:45:17;;;;;;;8.25;4.82;;;17.20;99.90;;;-141.84;59.72;18456.47;5082733;28;20257;-50
2022/05/19 04:47:54;;;;;;;4.88;4.15;;;17.30;99.90;;;-141.84;59.55;18458.50;5085666;28;20255;-52
2022/05/19 04:50:30;;;;;;;4.20;3.80;;;17.50;99.90;;;-141.84;58.42;18545.84;5073688;28;20232;-54
2022/05/19 04:53:10;;;;;;;8.18;4.68;;;17.80;99.90;;;-141.84;52.53;18736.84;5099541;28;20244;-53
2022/05/19 04:55:43;;;;;;;5.30;4.80;;;18.70;99.90;;;-141.84;45.12;19145.25;5087858;28;20239;-54
2022/05/19 04:58:36;;;;;;;5.45;3.92;;;20.00;99.90;;;-141.84;42.76;19443.97;5091953;28;20246;-53
2022/05/19 05:01:06;;;;;;;5.72;4.45;;;21.50;99.90;;;-141.84;40.23;19622.81;5087092;28;20308;-54
2022/05/19 05:03:44;;;;;;;4.10;3.72;;;22.30;99.90;;;-141.84;38.22;19821.97;5081050;28;20792;-55
2022/05/19 05:06:22;;;;;;;4.93;4.10;;;23.30;99.90;;;-141.84;37.02;19950.00;5088744;28;20300;-52
2022/05/19 05:08:50;;;;;;;4.60;4.07;;;23.70;99.90;;;-141.84;36.95;19992.69;5081724;28;20307;-54
2022/05/19 05:11:26;;;;;;;4.97;4.07;;;24.00;99.90;;;-141.84;35.65;20108.53;5085929;28;20229;-54
2022/05/19 05:14:04;;;;;;;4.47;4.07;;;23.90;99.90;;;-141.84;35.22;20098.38;5087032;28;20275;-52
2022/05/19 05:16:38;;;;;;;4.75;4.32;;;24.00;99.90;;;-141.84;35.09;20090.25;5076966;28;20368;-53
2022/05/19 05:19:07;;;;;;;5.45;4.20;;;23.70;99.90;;;-141.84;35.45;20063.81;5085847;28;20234;-53
2022/05/19 05:21:37;;;;;;;5.28;4.20;;;24.10;99.90;;;-141.84;35.53;20025.22;5084007;28;20258;-56
2022/05/19 05:24:11;;;;;;;5.68;4.28;;;23.70;99.90;;;-141.84;37.04;19925.63;5091019;28;20277;-52
2022/05/19 05:26:43;;;;;;;3.75;3.40;;;23.50;99.90;;;-141.84;38.38;19765.06;5061748;28;20225;-56
2022/05/19 05:29:13;;;;;;;4.57;4.18;;;23.30;99.90;;;-141.84;39.28;19643.13;5066188;28;20267;-49
2022/05/19 05:31:46;;;;;;;4.85;4.20;;;22.80;99.90;;;-141.84;40.24;19545.56;5065423;28;20244;-52
2022/05/19 05:34:31;;;;;;;5.38;4.25;;;22.20;99.90;;;-141.84;42.56;19425.69;5072053;28;20262;-52
2022/05/19 05:37:07;;;;;;;5.15;4.35;;;21.90;99.90;;;-141.84;43.37;19350.50;5085361;28;20286;-51
2022/05/19 05:39:46;;;;;;;4.53;4.13;;;21.70;99.90;;;-141.84;43.30;19356.59;5080119;28;20255;-54
2022/05/19 05:42:21;;;;;;;5.95;4.47;;;21.60;99.90;;;-141.84;43.63;19326.09;5085066;28;20251;-53
2022/05/19 05:44:51;;;;;;;5.35;4.70;;;21.50;99.90;;;-141.84;44.56;19305.78;5075680;28;20271;-53
2022/05/19 05:47:33;;;;;;;4.35;4.03;;;21.40;99.90;;;-141.84;45.11;19244.81;5094575;28;20189;-54
2022/05/19 05:50:19;;;;;;;6.07;4.57;;;21.30;99.90;;;-141.84;45.32;19265.13;5085257;28;20227;-52
2022/05/19 05:52:57;;;;;;;5.82;4.35;;;21.10;99.90;;;-141.84;45.66;19228.56;5081543;28;20246;-55
2022/05/19 05:55:25;;;;;;;4.40;4.00;;;21.10;99.90;;;-141.84;45.57;19204.19;5090669;28;20317;-54
2022/05/19 05:57:58;;;;;;;4.97;4.35;;;21.10;99.90;;;-141.84;45.37;19236.69;5082404;28;20224;-54
2022/05/19 06:00:28;;;;;;;6.05;4.40;;;21.30;99.90;;;-141.84;45.68;19224.50;5089974;28;20278;-53
2022/05/19 06:03:04;;;;;;;4.97;4.40;;;21.50;99.90;;;-141.84;44.40;19273.28;5081817;28;20283;-55
2022/05/19 06:05:38;;;;;;;4.70;4.20;;;21.60;99.90;;;-141.84;44.28;19232.63;5088928;28;20235;-53
2022/05/19 06:08:13;;;;;;;4.78;4.22;;;21.50;99.90;;;-141.84;44.74;19261.06;5090603;28;20289;-58
2022/05/19 06:10:50;;;;;;;5.15;4.00;;;21.60;99.90;;;-141.84;45.36;19261.06;5077527;28;20250;-55
2022/05/19 06:13:32;;;;;;;5.63;3.83;;;21.70;99.90;;;-141.84;44.19;19309.84;5090099;28;20242;-54
2022/05/19 06:16:02;;;;;;;4.38;3.97;;;21.80;99.90;;;-141.84;44.29;19313.91;5091821;28;20363;-54
2022/05/19 06:18:34;;;;;;;4.30;3.85;;;21.90;99.90;;;-141.84;44.07;19336.25;5090835;28;20263;-57
2022/05/19 06:21:12;;;;;;;4.50;4.03;;;22.10;99.90;;;-141.84;43.77;19342.34;5081620;28;20217;-53
2022/05/19 06:23:54;;;;;;;4.75;4.32;;;22.10;99.90;;;-141.84;44.06;19311.88;5088547;28;20232;-50
2022/05/19 06:26:33;;;;;;;5.20;4.20;;;22.00;99.90;;;-141.84;43.50;19336.25;5077345;28;20209;-55
2022/05/19 06:29:07;;;;;;;4.32;3.78;;;21.80;99.90;;;-141.84;44.04;19328.13;5101701;28;20201;-54
2022/05/19 06:31:41;;;;;;;5.78;3.83;;;21.90;99.90;;;-141.84;44.36;19283.44;5090410;28;20248;-54
2022/05/19 06:34:19;;;;;;;6.53;4.25;;;21.80;99.90;;;-141.84;44.21;19301.72;5093294;28;20315;-54
2022/05/19 06:36:53;;;;;;;4.43;3.78;;;21.70;99.90;;;-141.84;44.28;19326.09;5089682;28;20224;-54
2022/05/19 06:39:47;;;;;;;4.53;4.13;;;21.90;99.90;;;-141.84;44.02;19315.94;5084225;28;20220;-51
2022/05/19 06:42:21;;;;;;;7.03;3.75;;;22.10;99.90;;;-141.84;43.35;19383.00;5088690;28;20229;-54
2022/05/19 06:44:50;;;;;;;5.18;4.10;;;22.30;99.90;;;-141.84;44.00;19360.66;5082887;28;20297;-55
2022/05/19 06:47:26;;;;;;;4.85;3.60;;;22.40;99.90;;;-141.84;42.71;19405.34;5088425;28;20197;-56
2022/05/19 06:50:04;;;;;;;4.45;3.90;;;22.60;99.90;;;-141.84;43.18;19387.06;5089216;28;20580;-52
2022/05/19 06:52:46;;;;;;;5.20;3.55;;;22.60;99.90;;;-141.84;42.61;19401.28;5093104;28;20958;-52
2022/05/19 06:55:30;;;;;;;7.82;4.20;;;22.60;99.90;;;-141.84;43.12;19383.00;5088884;28;20313;-56
2022/05/19 06:57:59;;;;;;;3.90;3.58;;;22.60;99.90;;;-141.84;43.39;19389.09;5081324;28;20251;-53
2022/05/19 07:00:29;;;;;;;4.15;3.47;;;22.40;99.90;;;-141.84;42.27;19417.56;5089424;28;20239;-53
2022/05/19 07:03:10;;;;;;;8.40;4.28;;;22.50;99.90;;;-141.84;43.18;19376.91;5079531;28;20228;-55
2022/05/19 07:05:47;;;;;;;8.05;4.32;;;22.40;99.90;;;-141.84;43.45;19313.91;5086193;28;20234;-55
2022/05/19 07:08:26;;;;;;;4.35;3.97;;;22.30;99.90;;;-141.84;43.84;19293.59;5077343;28;20246;-54
2022/05/19 07:11:24;;;;;;;4.68;4.18;;;22.40;99.90;;;-141.84;43.63;19352.53;5088036;28;20200;-53
2022/05/19 07:14:00;;;;;;;5.40;4.13;;;22.40;99.90;;;-141.84;43.45;19383.00;5077686;28;20221;-51
2022/05/19 07:16:48;;;;;;;5.10;4.10;;;22.50;99.90;;;-141.84;43.77;19342.34;5095664;28;20242;-53
2022/05/19 07:22:28;;;;;;;5.35;3.90;;;22.40;99.90;;;-141.84;44.07;19350.50;5087658;28;20227;-52
2022/05/19 07:25:08;;;;;;;7.63;4.07;;;22.40;99.90;;;-141.84;43.61;19360.66;5087946;28;20274;-54
2022/05/19 07:27:46;;;;;;;5.82;4.18;;;22.40;99.90;;;-141.84;43.73;19358.63;5085518;28;20228;-54
2022/05/19 07:30:20;;;;;;;6.15;3.75;;;22.50;99.90;;;-141.84;43.16;19391.13;5091273;28;20251;-53
2022/05/19 07:32:48;;;;;;;4.35;3.95;;;22.60;99.90;;;-141.84;43.97;19372.84;5081618;28;20250;-53
2022/05/19 07:35:29;;;;;;;4.78;4.20;;;22.60;99.90;;;-141.84;43.41;19366.75;5099333;28;20228;-54
2022/05/19 07:38:26;;;;;;;;;;;;;;;;;;;;;
2022/05/19 07:41:19;;;;;;;5.30;4.10;;;22.50;99.90;;;-141.84;44.07;19346.44;5076732;28;20224;-54
2022/05/19 07:43:50;;;;;;;5.00;3.72;;;22.40;99.90;;;-141.84;44.45;19324.06;5078626;28;20239;-52
2022/05/19 07:46:38;;;;;;;5.65;4.30;;;22.40;99.90;;;-141.84;44.10;19383.00;5073843;28;20250;-54
2022/05/19 07:49:18;;;;;;;4.22;3.83;;;22.50;99.90;;;-141.84;44.07;19405.34;5086850;28;20239;-53
2022/05/19 07:52:01;;;;;;;4.30;3.78;;;22.50;99.90;;;-141.84;43.79;19366.75;5089273;28;20765;-51
2022/05/19 07:54:33;;;;;;;7.80;4.03;;;22.50;99.90;;;-141.84;43.88;19340.31;5090795;28;20228;-54
2022/05/19 07:57:23;;;;;;;4.30;3.90;;;22.50;99.90;;;-141.84;43.67;19387.06;5082075;28;20309;-52
2022/05/19 08:00:03;;;;;;;6.05;3.97;;;22.50;99.90;;;-141.84;42.75;19389.09;5094618;28;20289;-57
2022/05/19 08:02:39;;;;;;;5.55;4.30;;;22.60;99.90;;;-141.84;43.40;19387.06;5079702;28;20218;-54
2022/05/19 08:05:09;;;;;;;5.95;3.78;;;22.50;99.90;;;-141.84;43.80;19356.59;5087980;28;20204;-53
2022/05/19 08:07:40;;;;;;;3.97;3.67;;;22.60;99.90;;;-141.84;42.86;19403.31;5088397;28;20248;-53
2022/05/19 08:10:27;;;;;;;6.70;3.85;;;22.70;99.90;;;-141.84;42.18;19443.97;5081986;28;20228;-51
2022/05/19 08:15:59;;;;;;;5.43;3.83;;;22.70;99.90;;;-141.84;42.81;19395.19;5067004;28;20221;-53
2022/05/19 08:18:45;;;;;;;4.75;3.65;;;22.80;99.90;;;-141.84;42.53;19460.22;5066071;28;20248;-54
2022/05/19 08:21:34;;;;;;;4.00;3.17;;;22.90;99.90;;;-141.84;42.46;19435.84;5066858;28;20314;-56
2022/05/19 08:24:49;;;;;;;5.28;3.22;;;23.00;99.90;;;-141.84;42.13;19452.09;5063912;28;20295;-54
2022/05/19 08:27:25;;;;;;;5.63;3.10;;;23.00;99.90;;;-141.84;40.55;19561.84;5075955;28;20229;-52
2022/05/19 08:29:55;;;;;;;5.07;3.22;;;23.10;99.90;;;-141.84;40.54;19565.91;5061725;28;20220;-53
2022/05/19 08:32:35;;;;;;;5.18;3.10;;;23.30;99.90;;;-141.84;39.99;19545.56;5079111;28;20281;-54
2022/05/19 08:35:09;;;;;;;4.70;3.03;;;23.20;99.90;;;-141.84;40.04;19590.28;5073736;28;20262;-52
2022/05/19 08:37:45;;;;;;;4.78;2.97;;;23.20;99.90;;;-141.84;39.70;19588.25;5093809;28;20309;-53
2022/05/19 08:40:26;;;;;;;4.65;3.00;;;23.20;99.90;;;-141.84;38.39;19647.19;5083429;28;20291;-53
2022/05/19 08:43:09;;;;;;;3.25;2.75;;;23.40;99.90;;;-141.84;37.86;19677.66;5081246;28;20259;-53
2022/05/19 08:45:56;;;;;;;5.47;2.80;;;23.50;99.90;;;-141.84;37.30;19740.69;5088352;28;20302;-51
2022/05/19 08:48:35;;;;;;;3.75;2.50;;;23.60;99.90;;;-141.84;37.36;19724.41;5086581;28;20653;-53
2022/05/19 08:51:12;;;;;;;5.50;2.90;;;23.60;99.90;;;-141.84;37.31;19720.34;5086890;28;20219;-54
2022/05/19 08:53:50;;;;;;;5.00;2.85;;;23.80;99.90;;;-141.84;37.16;19746.78;5076689;28;20227;-54
2022/05/19 08:57:27;;;;;;;4.75;2.40;;;23.90;99.90;;;-141.84;36.41;19821.97;5089273;28;20188;-56
2022/05/19 09:00:38;;;;;;;2.70;2.50;;;23.90;99.90;;;-141.84;36.44;19815.88;5085896;28;20220;-52
2022/05/19 09:03:25;;;;;;;3.22;2.40;;;23.90;99.90;;;-141.84;36.47;19791.47;5073554;28;20792;-52
2022/05/19 09:07:56;;;;;;;3.47;2.40;;;23.90;99.90;;;-141.84;35.66;19852.44;5088431;28;20220;-53
2022/05/19 09:10:10;;;;;;;5.03;2.40;;;23.90;99.90;;;-141.84;36.50;19809.78;5092111;28;20235;-49
2022/05/19 09:12:44;;;;;;;3.05;2.78;;;23.90;99.90;;;-141.84;36.33;19817.91;5074610;28;20319;-53
2022/05/19 09:15:13;;;;;;;3.50;2.65;;;24.00;99.90;;;-141.84;36.59;19787.41;5048400;28;20220;-51
2022/05/19 09:17:47;;;;;;;6.97;3.08;;;24.00;99.90;;;-141.84;36.26;19862.63;5055399;28;20761;-51
2022/05/19 09:20:24;;;;;;;6.53;2.83;;;24.00;99.90;;;-141.84;36.20;19826.03;5067324;28;20207;-53
2022/05/19 09:22:52;;;;;;;3.47;2.67;;;24.10;99.90;;;-141.84;36.99;19826.03;5070991;28;20223;-49
2022/05/19 09:25:22;;;;;;;4.38;2.72;;;24.20;99.90;;;-141.84;36.64;19866.69;5071230;28;20211;-55
2022/05/19 09:27:52;;;;;;;4.90;2.63;;;24.30;99.90;;;-141.84;36.73;19838.22;5071170;28;20194;-54
2022/05/19 09:30:36;;;;;;;3.95;2.83;;;24.30;99.90;;;-141.84;36.43;19876.84;5071622;28;20627;-52
2022/05/19 09:33:09;;;;;;;4.00;2.90;;;24.30;99.90;;;-141.84;36.67;19874.81;5071405;28;20582;-50
2022/05/19 09:35:43;;;;;;;3.67;2.80;;;24.40;99.90;;;-141.84;36.08;19907.31;5071444;28;20200;-53
2022/05/19 09:38:26;;;;;;;3.70;2.60;;;24.60;99.90;;;-141.84;35.77;19952.03;5071337;28;20279;-50
2022/05/19 09:40:59;;;;;;;3.92;2.63;;;24.90;99.90;;;-141.84;35.55;20000.81;5071087;28;20209;-50
2022/05/19 09:43:37;;;;;;;3.30;3.03;;;25.00;99.90;;;-141.84;35.26;20017.09;5070926;28;20644;-53
2022/05/19 09:46:14;;;;;;;4.38;2.95;;;25.10;99.90;;;-141.84;35.43;20051.63;5071118;28;20238;-56
2022/05/19 09:48:47;;;;;;;6.22;2.58;;;25.10;99.90;;;-141.84;34.45;20078.06;5070574;28;20185;-51
2022/05/19 09:51:17;;;;;;;4.38;2.70;;;25.30;99.90;;;-141.84;34.01;20086.19;5070711;28;20641;-53
2022/05/19 09:53:50;;;;;;;3.20;2.78;;;25.30;99.90;;;-141.84;34.22;20096.34;5071035;28;20209;-52
2022/05/19 09:56:22;;;;;;;4.50;2.45;;;25.30;99.90;;;-141.84;33.98;20124.81;5071232;28;20231;-48
2022/05/19 09:59:05;;;;;;;3.47;2.40;;;25.30;99.90;;;-141.84;33.21;20114.63;5070832;28;20185;-54
2022/05/19 10:01:40;;;;;;;2.88;2.45;;;25.40;99.90;;;-141.84;33.31;20159.34;5071171;28;20275;-56
2022/05/19 10:04:16;;;;;;;5.78;2.47;;;25.40;99.90;;;-141.84;33.59;20143.09;5071222;28;20181;-55
2022/05/19 10:06:55;;;;;;;2.67;2.33;;;25.50;99.90;;;-141.84;33.62;20155.28;5071088;28;20555;-52
2022/05/19 10:09:30;;;;;;;6.25;2.55;;;25.60;99.90;;;-141.84;33.36;20200.00;5070951;28;20188;-53
2022/05/19 10:12:08;;;;;;;4.35;2.67;;;25.60;99.90;;;-141.84;33.57;20202.03;5071004;28;20189;-54
2022/05/19 10:14:39;;;;;;;4.47;2.35;;;25.70;99.90;;;-141.84;33.24;20232.53;5070864;28;20751;-52
2022/05/19 10:17:21;;;;;;;4.13;2.30;;;25.80;99.90;;;-141.84;32.82;20256.91;5070875;28;20689;-51
2022/05/19 10:20:08;;;;;;;4.90;2.47;;;26.00;99.90;;;-141.84;32.58;20305.69;5070930;28;20185;-51
2022/05/19 10:23:02;;;;;;;3.58;2.38;;;26.00;99.90;;;-141.84;32.44;20275.22;5070946;28;20288;-56
2022/05/19 10:26:01;;;;;;;3.15;2.50;;;26.00;99.90;;;-141.84;32.19;20344.31;5071114;28;20269;-54
2022/05/19 10:32:18;;;;;;;3.65;2.40;;;26.30;99.90;;;-141.84;32.27;20297.56;5007637;28;20242;-54
2022/05/19 10:35:02;;;;;;;3.15;2.40;;;26.10;99.90;;;-141.84;31.72;20352.44;5006859;28;20214;-55
2022/05/19 10:37:51;;;;;;;5.47;2.25;;;26.20;99.90;;;-141.84;31.54;20380.91;5052324;28;20652;-54
2022/05/19 10:40:35;;;;;;;2.67;2.47;;;26.40;99.90;;;-141.84;31.66;20395.13;5072105;28;20236;-54
2022/05/19 10:43:22;;;;;;;3.53;2.50;;;26.40;99.90;;;-141.84;31.57;20358.56;5074035;28;20191;-52
2022/05/19 10:45:53;;;;;;;2.80;2.13;;;26.50;99.90;;;-141.84;31.15;20437.81;5074496;28;20185;-54
2022/05/19 10:48:54;;;;;;;3.42;2.42;;;26.40;99.90;;;-141.84;30.41;20523.19;5074123;28;20203;-54
2022/05/19 10:51:40;;;;;;;3.15;2.50;;;26.50;99.50;;;-141.84;30.48;20492.72;5074159;28;20185;-53
2022/05/19 10:54:51;;;;;;;3.58;2.00;;;26.60;99.30;;;-141.84;30.69;20496.78;5073555;28;20296;-52
2022/05/19 10:57:38;;;;;;;5.18;2.20;;;26.50;98.90;;;-141.84;30.72;20464.25;5072419;28;20674;-54
2022/05/19 11:00:22;;;;;;;3.20;2.38;;;26.50;98.90;;;-141.84;30.80;20476.44;5074279;28;20232;-53
2022/05/19 11:03:32;;;;;;;4.93;2.30;;;26.50;99.20;;;-141.84;30.64;20462.22;5074272;28;20212;-53
2022/05/19 11:06:22;;;;;;;3.60;2.50;;;26.60;99.00;;;-141.84;31.18;20458.16;5073784;28;20228;-51
2022/05/19 11:09:05;;;;;;;3.42;2.60;;;26.70;99.40;;;-141.84;31.17;20529.28;5073809;28;20217;-52
2022/05/19 11:11:55;;;;;;;4.20;3.08;;;26.80;99.40;;;-141.84;30.99;20557.75;5074031;28;20185;-53
2022/05/19 11:14:49;;;;;;;3.50;2.25;;;26.80;99.00;;;-141.84;31.15;20539.47;5073641;28;20211;-53
2022/05/19 11:17:31;;;;;;;3.08;2.60;;;26.80;99.20;;;-141.84;30.79;20464.25;5073913;28;20253;-50
2022/05/19 11:20:06;;;;;;;2.65;2.45;;;26.80;98.70;;;-141.84;31.70;20456.13;5074357;28;20637;-55
2022/05/19 11:22:40;;;;;;;3.80;2.58;;;26.90;99.90;;;-141.84;32.00;20421.56;5073705;28;20184;-54